sensor_id;sensor_type;location;lat;lon;timestamp;P1;durP1;ratioP1;P2;durP2;ratioP2
55706;SDS011;41608;45.384;20.394;2023-02-17T00:02:01;185.75;;;117.22;;
55706;SDS011;41608;45.384;20.394;2023-02-17T00:04:28;183.50;;;117.32;;
55706;SDS011;41608;45.384;20.394;2023-02-17T00:06:55;180.60;;;117.25;;
55706;SDS011;41608;45.384;20.394;2023-02-17T00:09:21;185.77;;;115.80;;
55706;SDS011;41608;45.384;20.394;2023-02-17T00:11:47;176.93;;;115.57;;
55706;SDS011;41608;45.384;20.394;2023-02-17T00:14:13;176.18;;;115.05;;
55706;SDS011;41608;45.384;20.394;2023-02-17T00:16:40;179.23;;;114.22;;
55706;SDS011;41608;45.384;20.394;2023-02-17T00:19:06;184.90;;;120.55;;
55706;SDS011;41608;45.384;20.394;2023-02-17T00:21:53;195.57;;;120.88;;
55706;SDS011;41608;45.384;20.394;2023-02-17T00:24:20;188.38;;;121.90;;
55706;SDS011;41608;45.384;20.394;2023-02-17T00:26:46;186.75;;;116.78;;
55706;SDS011;41608;45.384;20.394;2023-02-17T00:29:12;188.65;;;124.65;;
55706;SDS011;41608;45.384;20.394;2023-02-17T00:31:38;191.82;;;125.65;;
55706;SDS011;41608;45.384;20.394;2023-02-17T00:34:04;188.40;;;120.70;;
55706;SDS011;41608;45.384;20.394;2023-02-17T00:36:31;177.27;;;118.10;;
55706;SDS011;41608;45.384;20.394;2023-02-17T00:38:57;181.82;;;115.82;;
55706;SDS011;41608;45.384;20.394;2023-02-17T00:41:24;172.75;;;115.90;;
55706;SDS011;41608;45.384;20.394;2023-02-17T00:43:50;171.10;;;110.75;;
55706;SDS011;41608;45.384;20.394;2023-02-17T00:46:16;160.73;;;108.50;;
55706;SDS011;41608;45.384;20.394;2023-02-17T00:48:42;171.60;;;115.95;;
55706;SDS011;41608;45.384;20.394;2023-02-17T00:51:09;182.00;;;116.00;;
55706;SDS011;41608;45.384;20.394;2023-02-17T00:53:35;173.57;;;107.10;;
55706;SDS011;41608;45.384;20.394;2023-02-17T00:56:01;166.75;;;108.68;;
55706;SDS011;41608;45.384;20.394;2023-02-17T00:58:28;163.48;;;107.35;;
55706;SDS011;41608;45.384;20.394;2023-02-17T01:00:55;165.30;;;107.45;;
55706;SDS011;41608;45.384;20.394;2023-02-17T01:03:22;163.95;;;106.90;;
55706;SDS011;41608;45.384;20.394;2023-02-17T01:05:49;168.10;;;114.28;;
55706;SDS011;41608;45.384;20.394;2023-02-17T01:08:15;180.98;;;114.88;;
55706;SDS011;41608;45.384;20.394;2023-02-17T01:10:42;170.55;;;109.18;;
55706;SDS011;41608;45.384;20.394;2023-02-17T01:13:09;174.07;;;111.93;;
55706;SDS011;41608;45.384;20.394;2023-02-17T01:15:36;166.88;;;111.13;;
55706;SDS011;41608;45.384;20.394;2023-02-17T01:18:02;174.05;;;111.55;;
55706;SDS011;41608;45.384;20.394;2023-02-17T01:20:29;163.63;;;108.07;;
55706;SDS011;41608;45.384;20.394;2023-02-17T01:22:58;169.52;;;105.60;;
55706;SDS011;41608;45.384;20.394;2023-02-17T01:25:24;160.93;;;106.85;;
55706;SDS011;41608;45.384;20.394;2023-02-17T01:27:50;162.70;;;105.80;;
55706;SDS011;41608;45.384;20.394;2023-02-17T01:30:16;147.38;;;95.50;;
55706;SDS011;41608;45.384;20.394;2023-02-17T01:32:42;159.30;;;102.18;;
55706;SDS011;41608;45.384;20.394;2023-02-17T01:35:09;155.18;;;97.57;;
55706;SDS011;41608;45.384;20.394;2023-02-17T01:37:35;138.52;;;92.68;;
55706;SDS011;41608;45.384;20.394;2023-02-17T01:40:01;149.07;;;98.45;;
55706;SDS011;41608;45.384;20.394;2023-02-17T01:42:27;147.38;;;97.20;;
55706;SDS011;41608;45.384;20.394;2023-02-17T01:47:38;153.90;;;99.72;;
55706;SDS011;41608;45.384;20.394;2023-02-17T01:50:04;146.05;;;97.72;;
55706;SDS011;41608;45.384;20.394;2023-02-17T01:52:30;150.73;;;95.38;;
55706;SDS011;41608;45.384;20.394;2023-02-17T01:54:58;153.50;;;96.53;;
55706;SDS011;41608;45.384;20.394;2023-02-17T01:57:25;139.68;;;96.10;;
55706;SDS011;41608;45.384;20.394;2023-02-17T01:59:53;140.68;;;88.90;;
55706;SDS011;41608;45.384;20.394;2023-02-17T02:02:20;131.85;;;90.68;;
55706;SDS011;41608;45.384;20.394;2023-02-17T02:04:47;143.48;;;95.85;;
55706;SDS011;41608;45.384;20.394;2023-02-17T02:07:36;134.13;;;90.78;;
55706;SDS011;41608;45.384;20.394;2023-02-17T02:10:00;139.57;;;91.80;;
55706;SDS011;41608;45.384;20.394;2023-02-17T02:12:28;136.75;;;93.47;;
55706;SDS011;41608;45.384;20.394;2023-02-17T02:14:55;161.63;;;102.03;;
55706;SDS011;41608;45.384;20.394;2023-02-17T02:17:26;156.48;;;102.63;;
55706;SDS011;41608;45.384;20.394;2023-02-17T02:22:39;140.95;;;91.85;;
55706;SDS011;41608;45.384;20.394;2023-02-17T02:40:20;158.02;;;101.93;;
55706;SDS011;41608;45.384;20.394;2023-02-17T02:42:47;172.95;;;111.03;;
55706;SDS011;41608;45.384;20.394;2023-02-17T02:45:14;166.90;;;112.28;;
55706;SDS011;41608;45.384;20.394;2023-02-17T02:47:43;172.77;;;108.38;;
55706;SDS011;41608;45.384;20.394;2023-02-17T02:50:11;174.93;;;114.38;;
55706;SDS011;41608;45.384;20.394;2023-02-17T03:00:46;165.52;;;108.97;;
55706;SDS011;41608;45.384;20.394;2023-02-17T03:03:52;172.98;;;113.00;;
55706;SDS011;41608;45.384;20.394;2023-02-17T03:06:18;170.32;;;111.63;;
55706;SDS011;41608;45.384;20.394;2023-02-17T03:09:05;160.02;;;109.75;;
55706;SDS011;41608;45.384;20.394;2023-02-17T03:11:33;163.98;;;106.30;;
55706;SDS011;41608;45.384;20.394;2023-02-17T03:14:04;155.60;;;102.45;;
55706;SDS011;41608;45.384;20.394;2023-02-17T03:16:30;155.73;;;102.97;;
55706;SDS011;41608;45.384;20.394;2023-02-17T03:18:57;168.02;;;107.32;;
55706;SDS011;41608;45.384;20.394;2023-02-17T03:21:23;160.10;;;104.93;;
55706;SDS011;41608;45.384;20.394;2023-02-17T03:26:54;169.38;;;105.25;;
55706;SDS011;41608;45.384;20.394;2023-02-17T03:29:20;157.55;;;105.82;;
55706;SDS011;41608;45.384;20.394;2023-02-17T03:31:46;163.88;;;102.78;;
55706;SDS011;41608;45.384;20.394;2023-02-17T03:34:12;154.63;;;105.43;;
55706;SDS011;41608;45.384;20.394;2023-02-17T03:36:38;160.38;;;101.35;;
55706;SDS011;41608;45.384;20.394;2023-02-17T03:39:04;165.30;;;107.53;;
55706;SDS011;41608;45.384;20.394;2023-02-17T03:44:34;164.93;;;103.68;;
55706;SDS011;41608;45.384;20.394;2023-02-17T03:50:04;151.50;;;97.00;;
55706;SDS011;41608;45.384;20.394;2023-02-17T03:55:34;146.63;;;96.82;;
55706;SDS011;41608;45.384;20.394;2023-02-17T04:01:06;144.93;;;94.45;;
55706;SDS011;41608;45.384;20.394;2023-02-17T04:03:33;148.63;;;95.88;;
55706;SDS011;41608;45.384;20.394;2023-02-17T04:05:59;141.48;;;92.50;;
55706;SDS011;41608;45.384;20.394;2023-02-17T04:08:25;137.48;;;91.88;;
55706;SDS011;41608;45.384;20.394;2023-02-17T04:10:56;138.85;;;91.90;;
55706;SDS011;41608;45.384;20.394;2023-02-17T04:13:22;144.95;;;93.40;;
55706;SDS011;41608;45.384;20.394;2023-02-17T04:15:48;132.90;;;90.72;;
55706;SDS011;41608;45.384;20.394;2023-02-17T04:18:15;138.85;;;90.95;;
55706;SDS011;41608;45.384;20.394;2023-02-17T04:20:41;143.45;;;89.43;;
55706;SDS011;41608;45.384;20.394;2023-02-17T04:23:07;141.15;;;95.07;;
55706;SDS011;41608;45.384;20.394;2023-02-17T04:25:33;145.20;;;97.68;;
55706;SDS011;41608;45.384;20.394;2023-02-17T04:28:00;134.48;;;92.90;;
55706;SDS011;41608;45.384;20.394;2023-02-17T04:30:26;134.82;;;89.82;;
55706;SDS011;41608;45.384;20.394;2023-02-17T04:32:52;136.15;;;92.10;;
55706;SDS011;41608;45.384;20.394;2023-02-17T04:35:18;147.50;;;96.47;;
55706;SDS011;41608;45.384;20.394;2023-02-17T04:37:44;143.50;;;95.70;;
55706;SDS011;41608;45.384;20.394;2023-02-17T04:40:10;135.95;;;90.97;;
55706;SDS011;41608;45.384;20.394;2023-02-17T04:42:37;143.40;;;91.97;;
55706;SDS011;41608;45.384;20.394;2023-02-17T04:45:03;139.73;;;90.05;;
55706;SDS011;41608;45.384;20.394;2023-02-17T04:47:32;139.48;;;91.22;;
55706;SDS011;41608;45.384;20.394;2023-02-17T04:49:58;133.57;;;88.38;;
55706;SDS011;41608;45.384;20.394;2023-02-17T04:52:26;129.52;;;87.00;;
55706;SDS011;41608;45.384;20.394;2023-02-17T05:04:05;159.60;;;100.22;;
55706;SDS011;41608;45.384;20.394;2023-02-17T05:09:35;152.23;;;97.22;;
55706;SDS011;41608;45.384;20.394;2023-02-17T05:15:05;146.18;;;92.60;;
55706;SDS011;41608;45.384;20.394;2023-02-17T05:17:31;152.73;;;96.80;;
55706;SDS011;41608;45.384;20.394;2023-02-17T05:19:57;143.55;;;92.90;;
55706;SDS011;41608;45.384;20.394;2023-02-17T05:22:26;146.73;;;91.88;;
55706;SDS011;41608;45.384;20.394;2023-02-17T05:24:52;149.32;;;95.93;;
55706;SDS011;41608;45.384;20.394;2023-02-17T05:27:19;147.88;;;98.45;;
55706;SDS011;41608;45.384;20.394;2023-02-17T05:29:47;155.60;;;102.32;;
55706;SDS011;41608;45.384;20.394;2023-02-17T05:32:13;143.23;;;95.03;;
55706;SDS011;41608;45.384;20.394;2023-02-17T05:34:42;142.98;;;99.78;;
55706;SDS011;41608;45.384;20.394;2023-02-17T05:37:08;143.77;;;99.38;;
55706;SDS011;41608;45.384;20.394;2023-02-17T05:39:34;151.70;;;101.78;;
55706;SDS011;41608;45.384;20.394;2023-02-17T05:42:00;163.77;;;104.30;;
55706;SDS011;41608;45.384;20.394;2023-02-17T05:44:26;145.73;;;97.45;;
55706;SDS011;41608;45.384;20.394;2023-02-17T05:46:52;166.25;;;106.82;;
55706;SDS011;41608;45.384;20.394;2023-02-17T05:49:18;159.25;;;105.55;;
55706;SDS011;41608;45.384;20.394;2023-02-17T05:51:45;164.10;;;105.35;;
55706;SDS011;41608;45.384;20.394;2023-02-17T05:54:11;162.05;;;102.78;;
55706;SDS011;41608;45.384;20.394;2023-02-17T05:56:39;160.77;;;103.85;;
55706;SDS011;41608;45.384;20.394;2023-02-17T05:59:05;157.65;;;104.18;;
55706;SDS011;41608;45.384;20.394;2023-02-17T06:01:31;157.77;;;103.25;;
55706;SDS011;41608;45.384;20.394;2023-02-17T06:03:59;157.77;;;103.93;;
55706;SDS011;41608;45.384;20.394;2023-02-17T06:06:25;157.23;;;102.80;;
55706;SDS011;41608;45.384;20.394;2023-02-17T06:08:51;158.98;;;103.28;;
55706;SDS011;41608;45.384;20.394;2023-02-17T06:14:21;153.43;;;97.35;;
55706;SDS011;41608;45.384;20.394;2023-02-17T06:16:47;156.20;;;103.65;;
55706;SDS011;41608;45.384;20.394;2023-02-17T06:19:13;157.85;;;100.68;;
55706;SDS011;41608;45.384;20.394;2023-02-17T06:21:39;161.57;;;102.57;;
55706;SDS011;41608;45.384;20.394;2023-02-17T06:24:05;152.73;;;98.03;;
55706;SDS011;41608;45.384;20.394;2023-02-17T06:26:31;149.63;;;98.80;;
55706;SDS011;41608;45.384;20.394;2023-02-17T06:28:58;150.05;;;97.63;;
55706;SDS011;41608;45.384;20.394;2023-02-17T06:31:24;152.20;;;99.95;;
55706;SDS011;41608;45.384;20.394;2023-02-17T06:33:50;152.52;;;98.82;;
55706;SDS011;41608;45.384;20.394;2023-02-17T06:36:16;156.18;;;99.30;;
55706;SDS011;41608;45.384;20.394;2023-02-17T06:38:44;151.20;;;99.75;;
55706;SDS011;41608;45.384;20.394;2023-02-17T06:41:13;153.88;;;104.20;;
55706;SDS011;41608;45.384;20.394;2023-02-17T06:43:39;173.52;;;114.53;;
55706;SDS011;41608;45.384;20.394;2023-02-17T06:46:05;162.60;;;109.82;;
55706;SDS011;41608;45.384;20.394;2023-02-17T06:48:31;158.27;;;102.60;;
55706;SDS011;41608;45.384;20.394;2023-02-17T06:50:58;167.23;;;108.60;;
55706;SDS011;41608;45.384;20.394;2023-02-17T06:53:24;155.32;;;99.63;;
55706;SDS011;41608;45.384;20.394;2023-02-17T06:55:50;147.77;;;97.82;;
55706;SDS011;41608;45.384;20.394;2023-02-17T06:58:16;150.60;;;94.93;;
55706;SDS011;41608;45.384;20.394;2023-02-17T07:00:43;138.68;;;86.35;;
55706;SDS011;41608;45.384;20.394;2023-02-17T07:03:09;118.53;;;78.03;;
55706;SDS011;41608;45.384;20.394;2023-02-17T07:05:35;116.55;;;77.95;;
55706;SDS011;41608;45.384;20.394;2023-02-17T07:08:02;132.00;;;82.55;;
55706;SDS011;41608;45.384;20.394;2023-02-17T07:10:30;129.23;;;83.70;;
55706;SDS011;41608;45.384;20.394;2023-02-17T07:12:56;121.40;;;82.03;;
55706;SDS011;41608;45.384;20.394;2023-02-17T07:15:23;137.57;;;85.45;;
55706;SDS011;41608;45.384;20.394;2023-02-17T07:17:49;131.50;;;87.35;;
55706;SDS011;41608;45.384;20.394;2023-02-17T07:20:15;129.25;;;84.45;;
55706;SDS011;41608;45.384;20.394;2023-02-17T07:22:41;123.60;;;81.38;;
55706;SDS011;41608;45.384;20.394;2023-02-17T07:25:07;115.80;;;75.90;;
55706;SDS011;41608;45.384;20.394;2023-02-17T07:27:34;110.32;;;73.05;;
55706;SDS011;41608;45.384;20.394;2023-02-17T07:30:00;111.75;;;72.45;;
55706;SDS011;41608;45.384;20.394;2023-02-17T07:32:26;99.45;;;63.38;;
55706;SDS011;41608;45.384;20.394;2023-02-17T07:34:52;87.07;;;60.72;;
55706;SDS011;41608;45.384;20.394;2023-02-17T07:37:18;81.68;;;57.20;;
55706;SDS011;41608;45.384;20.394;2023-02-17T07:39:46;82.15;;;56.85;;
55706;SDS011;41608;45.384;20.394;2023-02-17T07:42:12;79.13;;;57.83;;
55706;SDS011;41608;45.384;20.394;2023-02-17T07:44:40;87.97;;;57.13;;
55706;SDS011;41608;45.384;20.394;2023-02-17T07:47:06;84.05;;;54.85;;
55706;SDS011;41608;45.384;20.394;2023-02-17T07:49:33;101.28;;;64.13;;
55706;SDS011;41608;45.384;20.394;2023-02-17T07:51:59;83.07;;;57.08;;
55706;SDS011;41608;45.384;20.394;2023-02-17T07:54:25;89.43;;;54.90;;
55706;SDS011;41608;45.384;20.394;2023-02-17T07:56:51;87.53;;;58.20;;
55706;SDS011;41608;45.384;20.394;2023-02-17T07:59:17;87.53;;;58.22;;
55706;SDS011;41608;45.384;20.394;2023-02-17T08:01:43;81.20;;;58.83;;
55706;SDS011;41608;45.384;20.394;2023-02-17T08:04:09;82.13;;;56.75;;
55706;SDS011;41608;45.384;20.394;2023-02-17T08:06:36;89.15;;;58.30;;
55706;SDS011;41608;45.384;20.394;2023-02-17T08:09:04;84.05;;;56.78;;
55706;SDS011;41608;45.384;20.394;2023-02-17T08:11:49;82.22;;;55.75;;
55706;SDS011;41608;45.384;20.394;2023-02-17T08:14:33;94.15;;;64.50;;
55706;SDS011;41608;45.384;20.394;2023-02-17T08:16:59;79.57;;;55.53;;
55706;SDS011;41608;45.384;20.394;2023-02-17T08:19:25;87.05;;;60.45;;
55706;SDS011;41608;45.384;20.394;2023-02-17T08:21:52;78.63;;;53.95;;
55706;SDS011;41608;45.384;20.394;2023-02-17T08:24:18;79.05;;;56.10;;
55706;SDS011;41608;45.384;20.394;2023-02-17T08:26:45;84.38;;;59.22;;
55706;SDS011;41608;45.384;20.394;2023-02-17T08:29:11;73.05;;;51.70;;
55706;SDS011;41608;45.384;20.394;2023-02-17T08:31:37;81.60;;;55.65;;
55706;SDS011;41608;45.384;20.394;2023-02-17T08:34:05;75.43;;;51.28;;
55706;SDS011;41608;45.384;20.394;2023-02-17T08:36:31;71.53;;;52.30;;
55706;SDS011;41608;45.384;20.394;2023-02-17T08:38:57;83.30;;;56.60;;
55706;SDS011;41608;45.384;20.394;2023-02-17T08:43:50;67.68;;;48.83;;
55706;SDS011;41608;45.384;20.394;2023-02-17T08:46:16;61.40;;;44.10;;
55706;SDS011;41608;45.384;20.394;2023-02-17T08:48:43;71.20;;;49.25;;
55706;SDS011;41608;45.384;20.394;2023-02-17T08:51:13;69.05;;;45.67;;
55706;SDS011;41608;45.384;20.394;2023-02-17T08:53:39;64.75;;;45.15;;
55706;SDS011;41608;45.384;20.394;2023-02-17T08:56:05;65.45;;;45.10;;
55706;SDS011;41608;45.384;20.394;2023-02-17T08:58:32;58.40;;;43.75;;
55706;SDS011;41608;45.384;20.394;2023-02-17T09:00:58;59.85;;;43.83;;
55706;SDS011;41608;45.384;20.394;2023-02-17T09:03:24;68.32;;;54.95;;
55706;SDS011;41608;45.384;20.394;2023-02-17T09:05:54;61.65;;;44.78;;
55706;SDS011;41608;45.384;20.394;2023-02-17T09:08:20;60.88;;;42.65;;
55706;SDS011;41608;45.384;20.394;2023-02-17T09:10:47;58.63;;;41.65;;
55706;SDS011;41608;45.384;20.394;2023-02-17T09:13:13;61.42;;;42.35;;
55706;SDS011;41608;45.384;20.394;2023-02-17T09:15:39;60.33;;;40.10;;
55706;SDS011;41608;45.384;20.394;2023-02-17T09:18:05;54.53;;;38.35;;
55706;SDS011;41608;45.384;20.394;2023-02-17T09:20:31;42.08;;;30.83;;
55706;SDS011;41608;45.384;20.394;2023-02-17T09:22:57;42.45;;;28.75;;
55706;SDS011;41608;45.384;20.394;2023-02-17T09:25:23;41.35;;;29.80;;
55706;SDS011;41608;45.384;20.394;2023-02-17T09:27:49;50.10;;;31.27;;
55706;SDS011;41608;45.384;20.394;2023-02-17T09:30:15;47.03;;;33.30;;
55706;SDS011;41608;45.384;20.394;2023-02-17T09:32:42;51.95;;;34.20;;
55706;SDS011;41608;45.384;20.394;2023-02-17T09:35:12;47.92;;;32.78;;
55706;SDS011;41608;45.384;20.394;2023-02-17T09:37:38;50.72;;;32.97;;
55706;SDS011;41608;45.384;20.394;2023-02-17T09:40:04;45.65;;;31.52;;
55706;SDS011;41608;45.384;20.394;2023-02-17T09:42:30;46.35;;;32.55;;
55706;SDS011;41608;45.384;20.394;2023-02-17T09:45:09;44.90;;;31.88;;
55706;SDS011;41608;45.384;20.394;2023-02-17T09:47:37;46.28;;;31.70;;
55706;SDS011;41608;45.384;20.394;2023-02-17T09:50:09;50.00;;;33.00;;
55706;SDS011;41608;45.384;20.394;2023-02-17T09:52:41;41.75;;;29.05;;
55706;SDS011;41608;45.384;20.394;2023-02-17T09:55:21;42.60;;;29.95;;
55706;SDS011;41608;45.384;20.394;2023-02-17T09:58:02;40.70;;;26.38;;
55706;SDS011;41608;45.384;20.394;2023-02-17T10:00:32;38.33;;;26.27;;
55706;SDS011;41608;45.384;20.394;2023-02-17T10:05:35;37.42;;;24.48;;
55706;SDS011;41608;45.384;20.394;2023-02-17T10:08:20;31.50;;;23.08;;
55706;SDS011;41608;45.384;20.394;2023-02-17T10:10:52;34.05;;;23.67;;
55706;SDS011;41608;45.384;20.394;2023-02-17T10:13:19;38.47;;;24.85;;
55706;SDS011;41608;45.384;20.394;2023-02-17T10:15:50;35.55;;;23.98;;
55706;SDS011;41608;45.384;20.394;2023-02-17T10:23:17;30.80;;;23.10;;
55706;SDS011;41608;45.384;20.394;2023-02-17T10:25:54;35.50;;;23.52;;
55706;SDS011;41608;45.384;20.394;2023-02-17T10:28:39;34.60;;;23.55;;
55706;SDS011;41608;45.384;20.394;2023-02-17T10:31:14;34.83;;;24.63;;
55706;SDS011;41608;45.384;20.394;2023-02-17T10:36:24;32.33;;;21.00;;
55706;SDS011;41608;45.384;20.394;2023-02-17T10:38:51;33.38;;;23.42;;
55706;SDS011;41608;45.384;20.394;2023-02-17T10:41:21;31.13;;;23.50;;
55706;SDS011;41608;45.384;20.394;2023-02-17T10:43:48;33.92;;;21.23;;
55706;SDS011;41608;45.384;20.394;2023-02-17T10:46:15;26.95;;;21.83;;
55706;SDS011;41608;45.384;20.394;2023-02-17T10:48:52;27.90;;;22.95;;
55706;SDS011;41608;45.384;20.394;2023-02-17T10:51:23;25.98;;;19.48;;
55706;SDS011;41608;45.384;20.394;2023-02-17T10:53:50;26.83;;;19.58;;
55706;SDS011;41608;45.384;20.394;2023-02-17T11:01:37;27.75;;;19.75;;
55706;SDS011;41608;45.384;20.394;2023-02-17T11:04:04;25.88;;;19.27;;
55706;SDS011;41608;45.384;20.394;2023-02-17T11:06:31;25.30;;;20.17;;
55706;SDS011;41608;45.384;20.394;2023-02-17T11:09:05;23.80;;;18.80;;
55706;SDS011;41608;45.384;20.394;2023-02-17T11:11:36;28.65;;;18.27;;
55706;SDS011;41608;45.384;20.394;2023-02-17T11:16:32;25.48;;;17.52;;
55706;SDS011;41608;45.384;20.394;2023-02-17T11:18:59;24.23;;;17.73;;
55706;SDS011;41608;45.384;20.394;2023-02-17T11:21:27;23.42;;;17.65;;
55706;SDS011;41608;45.384;20.394;2023-02-17T11:23:54;29.05;;;17.80;;
55706;SDS011;41608;45.384;20.394;2023-02-17T11:26:22;25.10;;;16.33;;
55706;SDS011;41608;45.384;20.394;2023-02-17T11:28:49;23.08;;;17.83;;
55706;SDS011;41608;45.384;20.394;2023-02-17T11:31:26;27.30;;;22.48;;
55706;SDS011;41608;45.384;20.394;2023-02-17T11:33:53;24.20;;;15.80;;
55706;SDS011;41608;45.384;20.394;2023-02-17T11:36:23;20.73;;;15.93;;
55706;SDS011;41608;45.384;20.394;2023-02-17T11:38:50;21.95;;;16.05;;
55706;SDS011;41608;45.384;20.394;2023-02-17T11:41:16;22.25;;;15.77;;
55706;SDS011;41608;45.384;20.394;2023-02-17T11:46:40;20.02;;;14.93;;
55706;SDS011;41608;45.384;20.394;2023-02-17T12:03:14;20.90;;;15.65;;
55706;SDS011;41608;45.384;20.394;2023-02-17T12:13:30;26.63;;;17.25;;
55706;SDS011;41608;45.384;20.394;2023-02-17T12:18:58;26.92;;;16.45;;
55706;SDS011;41608;45.384;20.394;2023-02-17T12:26:36;20.27;;;15.32;;
55706;SDS011;41608;45.384;20.394;2023-02-17T12:29:13;19.13;;;14.63;;
55706;SDS011;41608;45.384;20.394;2023-02-17T12:36:54;18.65;;;15.48;;
55706;SDS011;41608;45.384;20.394;2023-02-17T12:39:43;25.27;;;15.90;;
55706;SDS011;41608;45.384;20.394;2023-02-17T12:42:26;23.42;;;16.25;;
55706;SDS011;41608;45.384;20.394;2023-02-17T12:44:56;18.73;;;15.38;;
55706;SDS011;41608;45.384;20.394;2023-02-17T12:47:30;24.88;;;17.83;;
55706;SDS011;41608;45.384;20.394;2023-02-17T12:50:04;28.65;;;18.02;;
55706;SDS011;41608;45.384;20.394;2023-02-17T12:52:32;20.27;;;16.85;;
55706;SDS011;41608;45.384;20.394;2023-02-17T12:58:00;24.70;;;17.95;;
55706;SDS011;41608;45.384;20.394;2023-02-17T13:03:01;33.28;;;22.88;;
55706;SDS011;41608;45.384;20.394;2023-02-17T13:05:29;24.17;;;17.55;;
55706;SDS011;41608;45.384;20.394;2023-02-17T13:08:14;22.50;;;17.50;;
55706;SDS011;41608;45.384;20.394;2023-02-17T13:10:41;24.83;;;17.02;;
55706;SDS011;41608;45.384;20.394;2023-02-17T13:13:11;26.38;;;17.75;;
55706;SDS011;41608;45.384;20.394;2023-02-17T13:15:42;24.92;;;17.63;;
55706;SDS011;41608;45.384;20.394;2023-02-17T13:20:54;27.63;;;19.30;;
55706;SDS011;41608;45.384;20.394;2023-02-17T13:23:26;26.98;;;17.17;;
55706;SDS011;41608;45.384;20.394;2023-02-17T13:26:12;25.42;;;16.40;;
55706;SDS011;41608;45.384;20.394;2023-02-17T13:28:40;26.05;;;16.23;;
55706;SDS011;41608;45.384;20.394;2023-02-17T13:31:11;23.35;;;16.17;;
55706;SDS011;41608;45.384;20.394;2023-02-17T13:33:39;22.42;;;16.45;;
55706;SDS011;41608;45.384;20.394;2023-02-17T13:36:16;21.90;;;16.05;;
55706;SDS011;41608;45.384;20.394;2023-02-17T13:43:46;22.73;;;15.18;;
55706;SDS011;41608;45.384;20.394;2023-02-17T13:46:18;22.05;;;15.80;;
55706;SDS011;41608;45.384;20.394;2023-02-17T13:48:56;20.60;;;14.93;;
55706;SDS011;41608;45.384;20.394;2023-02-17T13:51:24;24.48;;;15.68;;
55706;SDS011;41608;45.384;20.394;2023-02-17T13:53:51;25.70;;;13.88;;
55706;SDS011;41608;45.384;20.394;2023-02-17T13:56:24;22.58;;;16.70;;
55706;SDS011;41608;45.384;20.394;2023-02-17T13:58:51;20.75;;;14.77;;
55706;SDS011;41608;45.384;20.394;2023-02-17T14:01:18;30.15;;;17.83;;
55706;SDS011;41608;45.384;20.394;2023-02-17T14:03:46;25.88;;;15.60;;
55706;SDS011;41608;45.384;20.394;2023-02-17T14:06:28;28.10;;;16.88;;
55706;SDS011;41608;45.384;20.394;2023-02-17T14:08:57;23.25;;;16.42;;
55706;SDS011;41608;45.384;20.394;2023-02-17T14:11:25;24.35;;;16.05;;
55706;SDS011;41608;45.384;20.394;2023-02-17T14:13:53;25.15;;;16.40;;
55706;SDS011;41608;45.384;20.394;2023-02-17T14:16:29;21.48;;;16.50;;
55706;SDS011;41608;45.384;20.394;2023-02-17T14:19:07;25.27;;;17.30;;
55706;SDS011;41608;45.384;20.394;2023-02-17T14:21:34;24.98;;;16.58;;
55706;SDS011;41608;45.384;20.394;2023-02-17T14:24:00;24.33;;;18.67;;
55706;SDS011;41608;45.384;20.394;2023-02-17T14:26:46;26.58;;;18.38;;
55706;SDS011;41608;45.384;20.394;2023-02-17T14:29:13;29.45;;;18.98;;
55706;SDS011;41608;45.384;20.394;2023-02-17T14:31:40;26.58;;;18.95;;
55706;SDS011;41608;45.384;20.394;2023-02-17T14:34:28;28.83;;;19.02;;
55706;SDS011;41608;45.384;20.394;2023-02-17T14:36:54;27.13;;;19.17;;
55706;SDS011;41608;45.384;20.394;2023-02-17T14:39:31;25.85;;;18.98;;
55706;SDS011;41608;45.384;20.394;2023-02-17T14:41:57;29.15;;;20.17;;
55706;SDS011;41608;45.384;20.394;2023-02-17T14:44:23;87.50;;;57.40;;
55706;SDS011;41608;45.384;20.394;2023-02-17T14:46:49;24.67;;;18.25;;
55706;SDS011;41608;45.384;20.394;2023-02-17T14:49:15;26.15;;;18.50;;
55706;SDS011;41608;45.384;20.394;2023-02-17T14:51:41;29.60;;;20.63;;
55706;SDS011;41608;45.384;20.394;2023-02-17T14:54:11;30.80;;;21.40;;
55706;SDS011;41608;45.384;20.394;2023-02-17T14:59:30;25.20;;;16.63;;
55706;SDS011;41608;45.384;20.394;2023-02-17T15:01:56;31.20;;;18.08;;
55706;SDS011;41608;45.384;20.394;2023-02-17T15:04:22;25.30;;;17.48;;
55706;SDS011;41608;45.384;20.394;2023-02-17T15:06:48;28.17;;;17.73;;
55706;SDS011;41608;45.384;20.394;2023-02-17T15:09:16;22.70;;;17.35;;
55706;SDS011;41608;45.384;20.394;2023-02-17T15:11:43;31.60;;;19.17;;
55706;SDS011;41608;45.384;20.394;2023-02-17T15:14:14;25.40;;;17.92;;
55706;SDS011;41608;45.384;20.394;2023-02-17T15:16:40;24.83;;;17.35;;
55706;SDS011;41608;45.384;20.394;2023-02-17T15:19:10;24.77;;;17.13;;
55706;SDS011;41608;45.384;20.394;2023-02-17T15:21:37;25.73;;;18.95;;
55706;SDS011;41608;45.384;20.394;2023-02-17T15:24:10;26.02;;;18.25;;
55706;SDS011;41608;45.384;20.394;2023-02-17T15:26:37;27.23;;;17.17;;
55706;SDS011;41608;45.384;20.394;2023-02-17T15:29:03;27.88;;;19.98;;
55706;SDS011;41608;45.384;20.394;2023-02-17T15:31:30;25.70;;;17.13;;
55706;SDS011;41608;45.384;20.394;2023-02-17T15:33:58;29.73;;;18.45;;
55706;SDS011;41608;45.384;20.394;2023-02-17T15:36:24;39.20;;;21.98;;
55706;SDS011;41608;45.384;20.394;2023-02-17T15:38:51;40.47;;;20.33;;
55706;SDS011;41608;45.384;20.394;2023-02-17T15:41:23;31.73;;;20.95;;
55706;SDS011;41608;45.384;20.394;2023-02-17T15:43:50;41.50;;;22.88;;
55706;SDS011;41608;45.384;20.394;2023-02-17T15:46:17;54.67;;;24.33;;
55706;SDS011;41608;45.384;20.394;2023-02-17T15:48:44;43.80;;;23.77;;
55706;SDS011;41608;45.384;20.394;2023-02-17T15:51:13;37.13;;;22.33;;
55706;SDS011;41608;45.384;20.394;2023-02-17T15:53:40;29.92;;;19.83;;
55706;SDS011;41608;45.384;20.394;2023-02-17T15:56:14;32.90;;;20.92;;
55706;SDS011;41608;45.384;20.394;2023-02-17T15:58:41;32.63;;;21.65;;
55706;SDS011;41608;45.384;20.394;2023-02-17T16:01:21;30.63;;;20.88;;
55706;SDS011;41608;45.384;20.394;2023-02-17T16:03:49;31.17;;;21.73;;
55706;SDS011;41608;45.384;20.394;2023-02-17T16:06:15;43.90;;;26.33;;
55706;SDS011;41608;45.384;20.394;2023-02-17T16:08:41;31.55;;;22.30;;
55706;SDS011;41608;45.384;20.394;2023-02-17T16:11:10;36.58;;;25.38;;
55706;SDS011;41608;45.384;20.394;2023-02-17T16:13:40;42.63;;;27.02;;
55706;SDS011;41608;45.384;20.394;2023-02-17T16:16:14;45.75;;;30.27;;
55706;SDS011;41608;45.384;20.394;2023-02-17T16:18:41;42.72;;;29.27;;
55706;SDS011;41608;45.384;20.394;2023-02-17T16:21:08;77.63;;;45.47;;
55706;SDS011;41608;45.384;20.394;2023-02-17T16:23:35;112.78;;;71.35;;
55706;SDS011;41608;45.384;20.394;2023-02-17T16:26:04;72.03;;;47.85;;